Aérodrome :
LOGIN :

S'inscrire | Disclaimer

   EN    FR    IT 

 










Légende :    VFR   VFR Marginal   IFR   IFR Intensif   IFR Très Intensif
Visi : 
Plafond : 
>= 8 km
>= 3000ft
5 à 8 km
1000 à 3000 ft
1500m à 5 km
500 à 1000 ft
800 à 1500m
200 à 500 ft
< 800m
< 200 ft
Symboles :   Orages  Brouillard  Fortes neiges  Fortes précipitations  Vent > 20 kt
SIGMETs :   Divers  Orages  Givrage  Turbulence  Onde Orograph.  Cendres Volcan.







- Altitude de l'aérodrome : 1106 ft
- Voir les cartes d'approche


LFSO - Nancy / Ochey

DERNIER METAR :
  • 182000Z AUTO 18012KT CAVOK 07/01 Q1014 TEMPO 18015G25KT

METARs EXPIRÉS :
  • 181930Z AUTO 17012KT CAVOK 06/M00 Q1015 TEMPO 18015G25KT
  • 181900Z AUTO 17011KT CAVOK 05/M01 Q1015 TEMPO 18015G25KT
  • 181830Z AUTO 16010KT CAVOK 05/M01 Q1015 TEMPO 18015G25KT
  • 181800Z AUTO 14009KT CAVOK 05/M01 Q1015 TEMPO 18015G25KT
  • 181730Z AUTO 15009KT CAVOK 04/M00 Q1016 TEMPO 18015G25KT

TAF TAF LFSO
Valide du 18 à 15h jusqu'au 19 à 15h UTC


181400Z 1815/1915 15010KT CAVOK
TEMPO 1817/1902 18015G25KT
TEMPO 1904/1907 4500 -RA
BECMG 1907/1909 BKN012 OVC020
TEMPO 1908/1910 BKN007 OVC010
Pas de NOTAMs connus pour ce terrain.



MET'MAP, la Météo Aéronautique d'un coup d'oeil ! - Copyright ORBIFLY Décembre 2007 - Disclaimer

ORBIFLY MET'MAP TEAM :

Programmation & Développement : Alexandra Zaïnal
Conception & Développement : Baudouin d'Aumeries
Co-Programmation & Développement : Marc-Olivier Méhu
Soutien technique & logistique : Manuel Goepfert

Contact : metmap@orbifly.com




SOURCES & CREDITS :

   NOAA